sensor_id;sensor_type;location;lat;lon;timestamp;P1;durP1;ratioP1;P2;durP2;ratioP2
61085;SDS011;46967;48.876;2.136;2022-12-15T00:00:39;27.85;;;15.43;;
61085;SDS011;46967;48.876;2.136;2022-12-15T00:03:23;29.10;;;14.93;;
61085;SDS011;46967;48.876;2.136;2022-12-15T00:06:07;25.83;;;14.48;;
61085;SDS011;46967;48.876;2.136;2022-12-15T00:08:51;23.85;;;14.07;;
61085;SDS011;46967;48.876;2.136;2022-12-15T00:11:35;28.88;;;15.05;;
61085;SDS011;46967;48.876;2.136;2022-12-15T00:14:19;26.45;;;15.30;;
61085;SDS011;46967;48.876;2.136;2022-12-15T00:17:03;26.60;;;14.90;;
61085;SDS011;46967;48.876;2.136;2022-12-15T00:19:47;26.05;;;13.75;;
61085;SDS011;46967;48.876;2.136;2022-12-15T00:22:31;25.70;;;14.68;;
61085;SDS011;46967;48.876;2.136;2022-12-15T00:25:15;24.33;;;14.35;;
61085;SDS011;46967;48.876;2.136;2022-12-15T00:27:59;27.17;;;15.63;;
61085;SDS011;46967;48.876;2.136;2022-12-15T00:30:43;26.05;;;14.98;;
61085;SDS011;46967;48.876;2.136;2022-12-15T00:33:27;27.30;;;15.25;;
61085;SDS011;46967;48.876;2.136;2022-12-15T00:36:11;24.10;;;13.82;;
61085;SDS011;46967;48.876;2.136;2022-12-15T00:38:55;28.33;;;15.48;;
61085;SDS011;46967;48.876;2.136;2022-12-15T00:41:20;26.25;;;14.63;;
61085;SDS011;46967;48.876;2.136;2022-12-15T00:43:45;33.05;;;16.67;;
61085;SDS011;46967;48.876;2.136;2022-12-15T00:46:11;28.00;;;15.45;;
61085;SDS011;46967;48.876;2.136;2022-12-15T00:48:56;24.25;;;15.43;;
61085;SDS011;46967;48.876;2.136;2022-12-15T00:51:22;27.70;;;15.55;;
61085;SDS011;46967;48.876;2.136;2022-12-15T00:54:06;28.55;;;15.80;;
61085;SDS011;46967;48.876;2.136;2022-12-15T00:56:51;25.00;;;16.00;;
61085;SDS011;46967;48.876;2.136;2022-12-15T00:59:35;26.70;;;16.00;;
61085;SDS011;46967;48.876;2.136;2022-12-15T01:02:19;26.60;;;14.60;;
61085;SDS011;46967;48.876;2.136;2022-12-15T01:05:03;28.38;;;14.30;;
61085;SDS011;46967;48.876;2.136;2022-12-15T01:07:47;29.77;;;15.75;;
61085;SDS011;46967;48.876;2.136;2022-12-15T01:10:31;27.67;;;14.68;;
61085;SDS011;46967;48.876;2.136;2022-12-15T01:13:15;30.27;;;15.88;;
61085;SDS011;46967;48.876;2.136;2022-12-15T01:15:59;29.15;;;15.43;;
61085;SDS011;46967;48.876;2.136;2022-12-15T01:18:43;28.20;;;15.15;;
61085;SDS011;46967;48.876;2.136;2022-12-15T01:21:27;34.50;;;17.17;;
61085;SDS011;46967;48.876;2.136;2022-12-15T01:23:52;30.42;;;14.52;;
61085;SDS011;46967;48.876;2.136;2022-12-15T01:26:18;26.42;;;15.73;;
61085;SDS011;46967;48.876;2.136;2022-12-15T01:28:43;28.35;;;15.52;;
61085;SDS011;46967;48.876;2.136;2022-12-15T01:31:09;25.48;;;14.60;;
61085;SDS011;46967;48.876;2.136;2022-12-15T01:33:36;31.27;;;15.38;;
61085;SDS011;46967;48.876;2.136;2022-12-15T01:36:02;24.67;;;14.68;;
61085;SDS011;46967;48.876;2.136;2022-12-15T01:38:28;30.15;;;14.68;;
61085;SDS011;46967;48.876;2.136;2022-12-15T01:40:57;31.20;;;15.75;;
61085;SDS011;46967;48.876;2.136;2022-12-15T01:43:28;28.92;;;15.90;;
61085;SDS011;46967;48.876;2.136;2022-12-15T01:45:57;28.92;;;15.63;;
61085;SDS011;46967;48.876;2.136;2022-12-15T01:48:38;26.67;;;14.80;;
61085;SDS011;46967;48.876;2.136;2022-12-15T01:51:26;25.40;;;14.95;;
61085;SDS011;46967;48.876;2.136;2022-12-15T01:54:16;28.20;;;14.35;;
61085;SDS011;46967;48.876;2.136;2022-12-15T01:56:45;31.52;;;15.20;;
61085;SDS011;46967;48.876;2.136;2022-12-15T01:59:19;24.38;;;14.82;;
61085;SDS011;46967;48.876;2.136;2022-12-15T02:01:49;30.38;;;14.65;;
61085;SDS011;46967;48.876;2.136;2022-12-15T02:04:15;26.75;;;14.60;;
61085;SDS011;46967;48.876;2.136;2022-12-15T02:06:43;31.48;;;15.23;;
61085;SDS011;46967;48.876;2.136;2022-12-15T02:09:08;24.63;;;14.57;;
61085;SDS011;46967;48.876;2.136;2022-12-15T02:11:40;27.85;;;15.20;;
61085;SDS011;46967;48.876;2.136;2022-12-15T02:14:13;27.00;;;16.02;;
61085;SDS011;46967;48.876;2.136;2022-12-15T02:23:14;27.80;;;15.52;;
61085;SDS011;46967;48.876;2.136;2022-12-15T02:31:03;36.40;;;14.82;;
61085;SDS011;46967;48.876;2.136;2022-12-15T02:33:51;32.08;;;15.63;;
61085;SDS011;46967;48.876;2.136;2022-12-15T02:36:34;32.15;;;14.98;;
61085;SDS011;46967;48.876;2.136;2022-12-15T02:39:05;28.95;;;15.20;;
61085;SDS011;46967;48.876;2.136;2022-12-15T02:41:40;27.83;;;16.02;;
61085;SDS011;46967;48.876;2.136;2022-12-15T02:44:11;26.63;;;14.70;;
61085;SDS011;46967;48.876;2.136;2022-12-15T02:55:14;26.73;;;15.20;;
61085;SDS011;46967;48.876;2.136;2022-12-15T03:00:14;29.05;;;16.63;;
61085;SDS011;46967;48.876;2.136;2022-12-15T03:02:43;25.23;;;14.57;;
61085;SDS011;46967;48.876;2.136;2022-12-15T03:05:13;26.95;;;15.13;;
61085;SDS011;46967;48.876;2.136;2022-12-15T03:07:39;29.42;;;15.70;;
61085;SDS011;46967;48.876;2.136;2022-12-15T03:10:07;26.65;;;14.98;;
61085;SDS011;46967;48.876;2.136;2022-12-15T03:12:34;28.58;;;15.32;;
61085;SDS011;46967;48.876;2.136;2022-12-15T03:14:59;31.42;;;15.32;;
61085;SDS011;46967;48.876;2.136;2022-12-15T03:17:25;38.90;;;16.75;;
61085;SDS011;46967;48.876;2.136;2022-12-15T03:19:50;29.98;;;16.00;;
61085;SDS011;46967;48.876;2.136;2022-12-15T03:22:16;31.63;;;15.57;;
61085;SDS011;46967;48.876;2.136;2022-12-15T03:24:41;28.67;;;15.75;;
61085;SDS011;46967;48.876;2.136;2022-12-15T03:27:06;31.92;;;16.17;;
61085;SDS011;46967;48.876;2.136;2022-12-15T03:29:32;28.85;;;15.90;;
61085;SDS011;46967;48.876;2.136;2022-12-15T03:31:57;29.42;;;14.70;;
61085;SDS011;46967;48.876;2.136;2022-12-15T03:34:22;29.92;;;16.45;;
61085;SDS011;46967;48.876;2.136;2022-12-15T03:36:48;28.23;;;15.23;;
61085;SDS011;46967;48.876;2.136;2022-12-15T03:39:14;29.50;;;15.93;;
61085;SDS011;46967;48.876;2.136;2022-12-15T03:41:40;27.52;;;15.23;;
61085;SDS011;46967;48.876;2.136;2022-12-15T03:44:05;31.20;;;15.50;;
61085;SDS011;46967;48.876;2.136;2022-12-15T03:46:31;30.67;;;15.77;;
61085;SDS011;46967;48.876;2.136;2022-12-15T03:48:56;35.20;;;17.25;;
61085;SDS011;46967;48.876;2.136;2022-12-15T03:51:22;30.63;;;16.13;;
61085;SDS011;46967;48.876;2.136;2022-12-15T03:53:48;29.13;;;15.68;;
61085;SDS011;46967;48.876;2.136;2022-12-15T03:56:14;28.15;;;15.55;;
61085;SDS011;46967;48.876;2.136;2022-12-15T03:58:40;26.65;;;15.48;;
61085;SDS011;46967;48.876;2.136;2022-12-15T04:01:47;31.95;;;17.27;;
61085;SDS011;46967;48.876;2.136;2022-12-15T04:03:55;29.33;;;15.57;;
61085;SDS011;46967;48.876;2.136;2022-12-15T04:06:21;32.72;;;16.35;;
61085;SDS011;46967;48.876;2.136;2022-12-15T04:08:47;29.15;;;16.02;;
61085;SDS011;46967;48.876;2.136;2022-12-15T04:11:12;32.08;;;16.55;;
61085;SDS011;46967;48.876;2.136;2022-12-15T04:13:38;26.60;;;15.38;;
61085;SDS011;46967;48.876;2.136;2022-12-15T04:16:03;30.35;;;16.08;;
61085;SDS011;46967;48.876;2.136;2022-12-15T04:18:29;29.27;;;15.70;;
61085;SDS011;46967;48.876;2.136;2022-12-15T04:20:55;27.85;;;16.35;;
61085;SDS011;46967;48.876;2.136;2022-12-15T04:23:21;28.55;;;16.15;;
61085;SDS011;46967;48.876;2.136;2022-12-15T04:25:46;25.98;;;14.63;;
61085;SDS011;46967;48.876;2.136;2022-12-15T04:28:30;26.13;;;15.65;;
61085;SDS011;46967;48.876;2.136;2022-12-15T04:31:16;29.90;;;15.85;;
61085;SDS011;46967;48.876;2.136;2022-12-15T04:34:03;30.63;;;16.60;;
61085;SDS011;46967;48.876;2.136;2022-12-15T04:36:49;27.73;;;15.30;;
61085;SDS011;46967;48.876;2.136;2022-12-15T04:39:36;27.83;;;16.13;;
61085;SDS011;46967;48.876;2.136;2022-12-15T04:42:25;33.75;;;16.65;;
61085;SDS011;46967;48.876;2.136;2022-12-15T04:45:10;28.63;;;15.55;;
61085;SDS011;46967;48.876;2.136;2022-12-15T04:47:55;30.92;;;16.05;;
61085;SDS011;46967;48.876;2.136;2022-12-15T04:50:39;31.40;;;16.13;;
61085;SDS011;46967;48.876;2.136;2022-12-15T04:53:23;28.00;;;16.08;;
61085;SDS011;46967;48.876;2.136;2022-12-15T04:56:11;28.65;;;15.90;;
61085;SDS011;46967;48.876;2.136;2022-12-15T04:58:56;27.08;;;15.98;;
61085;SDS011;46967;48.876;2.136;2022-12-15T05:01:40;28.10;;;15.60;;
61085;SDS011;46967;48.876;2.136;2022-12-15T05:04:25;28.33;;;15.25;;
61085;SDS011;46967;48.876;2.136;2022-12-15T05:07:09;30.33;;;15.90;;
61085;SDS011;46967;48.876;2.136;2022-12-15T05:09:53;26.90;;;16.23;;
61085;SDS011;46967;48.876;2.136;2022-12-15T05:12:37;31.67;;;16.20;;
61085;SDS011;46967;48.876;2.136;2022-12-15T05:15:21;30.25;;;17.25;;
61085;SDS011;46967;48.876;2.136;2022-12-15T05:18:05;28.30;;;16.25;;
61085;SDS011;46967;48.876;2.136;2022-12-15T05:20:49;33.80;;;16.10;;
61085;SDS011;46967;48.876;2.136;2022-12-15T05:23:33;48.15;;;23.75;;
61085;SDS011;46967;48.876;2.136;2022-12-15T05:26:17;36.53;;;17.73;;
61085;SDS011;46967;48.876;2.136;2022-12-15T05:29:01;32.45;;;16.42;;
61085;SDS011;46967;48.876;2.136;2022-12-15T05:31:45;30.10;;;16.10;;
61085;SDS011;46967;48.876;2.136;2022-12-15T05:34:37;30.67;;;16.42;;
61085;SDS011;46967;48.876;2.136;2022-12-15T05:37:02;27.52;;;17.25;;
61085;SDS011;46967;48.876;2.136;2022-12-15T05:39:28;29.17;;;16.85;;
61085;SDS011;46967;48.876;2.136;2022-12-15T05:41:54;36.55;;;18.35;;
61085;SDS011;46967;48.876;2.136;2022-12-15T05:44:22;29.15;;;16.92;;
61085;SDS011;46967;48.876;2.136;2022-12-15T05:46:49;33.75;;;17.23;;
61085;SDS011;46967;48.876;2.136;2022-12-15T05:49:15;29.52;;;16.17;;
61085;SDS011;46967;48.876;2.136;2022-12-15T05:51:42;29.30;;;16.65;;
61085;SDS011;46967;48.876;2.136;2022-12-15T05:54:09;30.60;;;16.83;;
61085;SDS011;46967;48.876;2.136;2022-12-15T05:56:35;30.35;;;17.13;;
61085;SDS011;46967;48.876;2.136;2022-12-15T05:59:01;30.98;;;16.98;;
61085;SDS011;46967;48.876;2.136;2022-12-15T06:01:27;27.83;;;15.93;;
61085;SDS011;46967;48.876;2.136;2022-12-15T06:03:54;30.52;;;16.08;;
61085;SDS011;46967;48.876;2.136;2022-12-15T06:06:20;29.33;;;16.00;;
61085;SDS011;46967;48.876;2.136;2022-12-15T06:08:45;28.95;;;16.25;;
61085;SDS011;46967;48.876;2.136;2022-12-15T06:11:12;31.73;;;16.67;;
61085;SDS011;46967;48.876;2.136;2022-12-15T06:13:39;27.50;;;15.60;;
61085;SDS011;46967;48.876;2.136;2022-12-15T06:16:06;36.55;;;16.90;;
61085;SDS011;46967;48.876;2.136;2022-12-15T06:18:37;30.80;;;17.50;;
61085;SDS011;46967;48.876;2.136;2022-12-15T06:21:11;31.58;;;16.20;;
61085;SDS011;46967;48.876;2.136;2022-12-15T06:23:38;29.02;;;16.10;;
61085;SDS011;46967;48.876;2.136;2022-12-15T06:26:46;29.88;;;17.00;;
61085;SDS011;46967;48.876;2.136;2022-12-15T06:28:58;27.55;;;16.33;;
61085;SDS011;46967;48.876;2.136;2022-12-15T06:31:26;32.83;;;16.27;;
61085;SDS011;46967;48.876;2.136;2022-12-15T06:33:53;29.83;;;16.75;;
61085;SDS011;46967;48.876;2.136;2022-12-15T06:36:19;33.15;;;16.08;;
61085;SDS011;46967;48.876;2.136;2022-12-15T06:38:45;32.35;;;17.38;;
61085;SDS011;46967;48.876;2.136;2022-12-15T06:41:12;33.70;;;17.23;;
61085;SDS011;46967;48.876;2.136;2022-12-15T06:43:39;28.77;;;16.05;;
61085;SDS011;46967;48.876;2.136;2022-12-15T06:46:05;30.45;;;16.58;;
61085;SDS011;46967;48.876;2.136;2022-12-15T06:48:30;30.95;;;17.20;;
61085;SDS011;46967;48.876;2.136;2022-12-15T06:51:00;33.78;;;16.70;;
61085;SDS011;46967;48.876;2.136;2022-12-15T06:53:28;32.83;;;17.08;;
61085;SDS011;46967;48.876;2.136;2022-12-15T06:55:54;32.60;;;17.17;;
61085;SDS011;46967;48.876;2.136;2022-12-15T06:58:26;35.65;;;17.02;;
61085;SDS011;46967;48.876;2.136;2022-12-15T07:00:52;31.52;;;17.05;;
61085;SDS011;46967;48.876;2.136;2022-12-15T07:03:17;32.38;;;17.17;;
61085;SDS011;46967;48.876;2.136;2022-12-15T07:05:43;31.90;;;17.05;;
61085;SDS011;46967;48.876;2.136;2022-12-15T07:08:10;31.20;;;16.83;;
61085;SDS011;46967;48.876;2.136;2022-12-15T07:10:37;32.35;;;16.33;;
61085;SDS011;46967;48.876;2.136;2022-12-15T07:13:04;30.73;;;17.40;;
61085;SDS011;46967;48.876;2.136;2022-12-15T07:15:30;34.25;;;17.23;;
61085;SDS011;46967;48.876;2.136;2022-12-15T07:17:55;31.50;;;17.45;;
61085;SDS011;46967;48.876;2.136;2022-12-15T07:20:20;30.00;;;17.25;;
61085;SDS011;46967;48.876;2.136;2022-12-15T07:22:49;32.15;;;17.27;;
61085;SDS011;46967;48.876;2.136;2022-12-15T07:25:15;29.38;;;16.85;;
61085;SDS011;46967;48.876;2.136;2022-12-15T07:27:41;28.45;;;17.20;;
61085;SDS011;46967;48.876;2.136;2022-12-15T07:30:07;30.52;;;16.80;;
61085;SDS011;46967;48.876;2.136;2022-12-15T07:32:33;31.63;;;17.33;;
61085;SDS011;46967;48.876;2.136;2022-12-15T07:34:58;31.63;;;17.10;;
61085;SDS011;46967;48.876;2.136;2022-12-15T07:37:24;33.63;;;16.67;;
61085;SDS011;46967;48.876;2.136;2022-12-15T07:39:50;29.90;;;17.25;;
61085;SDS011;46967;48.876;2.136;2022-12-15T07:42:15;32.20;;;16.73;;
61085;SDS011;46967;48.876;2.136;2022-12-15T07:44:40;31.85;;;17.35;;
61085;SDS011;46967;48.876;2.136;2022-12-15T07:47:06;30.17;;;16.92;;
61085;SDS011;46967;48.876;2.136;2022-12-15T07:49:31;38.50;;;17.70;;
61085;SDS011;46967;48.876;2.136;2022-12-15T07:51:56;33.15;;;16.52;;
61085;SDS011;46967;48.876;2.136;2022-12-15T07:54:22;33.28;;;18.45;;
61085;SDS011;46967;48.876;2.136;2022-12-15T07:56:48;33.83;;;16.83;;
61085;SDS011;46967;48.876;2.136;2022-12-15T07:59:13;31.85;;;16.65;;
61085;SDS011;46967;48.876;2.136;2022-12-15T08:01:39;31.08;;;17.55;;
61085;SDS011;46967;48.876;2.136;2022-12-15T08:04:04;30.33;;;16.55;;
61085;SDS011;46967;48.876;2.136;2022-12-15T08:06:30;29.77;;;16.27;;
61085;SDS011;46967;48.876;2.136;2022-12-15T08:08:56;30.83;;;17.40;;
61085;SDS011;46967;48.876;2.136;2022-12-15T08:11:21;32.58;;;17.48;;
61085;SDS011;46967;48.876;2.136;2022-12-15T08:13:48;29.77;;;17.55;;
61085;SDS011;46967;48.876;2.136;2022-12-15T08:16:14;33.63;;;17.65;;
61085;SDS011;46967;48.876;2.136;2022-12-15T08:18:39;27.65;;;16.27;;
61085;SDS011;46967;48.876;2.136;2022-12-15T08:21:05;29.63;;;17.50;;
61085;SDS011;46967;48.876;2.136;2022-12-15T08:23:33;30.42;;;17.52;;
61085;SDS011;46967;48.876;2.136;2022-12-15T08:26:03;30.60;;;18.48;;
61085;SDS011;46967;48.876;2.136;2022-12-15T08:28:30;34.00;;;17.52;;
61085;SDS011;46967;48.876;2.136;2022-12-15T08:31:07;30.27;;;17.20;;
61085;SDS011;46967;48.876;2.136;2022-12-15T08:33:34;35.78;;;18.05;;
61085;SDS011;46967;48.876;2.136;2022-12-15T08:36:00;32.92;;;18.30;;
61085;SDS011;46967;48.876;2.136;2022-12-15T08:38:27;36.22;;;18.33;;
61085;SDS011;46967;48.876;2.136;2022-12-15T08:40:53;30.83;;;17.35;;
61085;SDS011;46967;48.876;2.136;2022-12-15T08:43:18;35.25;;;16.92;;
61085;SDS011;46967;48.876;2.136;2022-12-15T08:45:43;33.55;;;17.27;;
61085;SDS011;46967;48.876;2.136;2022-12-15T08:48:09;29.30;;;17.13;;
61085;SDS011;46967;48.876;2.136;2022-12-15T08:50:34;31.38;;;16.92;;
61085;SDS011;46967;48.876;2.136;2022-12-15T08:52:59;31.45;;;16.98;;
61085;SDS011;46967;48.876;2.136;2022-12-15T08:55:25;35.03;;;19.05;;
61085;SDS011;46967;48.876;2.136;2022-12-15T08:57:52;31.00;;;17.80;;
61085;SDS011;46967;48.876;2.136;2022-12-15T09:00:18;34.92;;;17.83;;
61085;SDS011;46967;48.876;2.136;2022-12-15T09:02:43;31.08;;;18.48;;
61085;SDS011;46967;48.876;2.136;2022-12-15T09:05:09;36.42;;;19.45;;
61085;SDS011;46967;48.876;2.136;2022-12-15T09:07:34;32.90;;;18.00;;
61085;SDS011;46967;48.876;2.136;2022-12-15T09:10:00;34.33;;;18.67;;
61085;SDS011;46967;48.876;2.136;2022-12-15T09:12:25;37.90;;;17.92;;
61085;SDS011;46967;48.876;2.136;2022-12-15T09:14:51;34.80;;;18.60;;
61085;SDS011;46967;48.876;2.136;2022-12-15T09:17:16;32.60;;;17.45;;
61085;SDS011;46967;48.876;2.136;2022-12-15T09:19:42;34.85;;;18.70;;
61085;SDS011;46967;48.876;2.136;2022-12-15T09:22:07;36.47;;;18.38;;
61085;SDS011;46967;48.876;2.136;2022-12-15T09:24:33;29.23;;;17.30;;
61085;SDS011;46967;48.876;2.136;2022-12-15T09:26:58;33.40;;;18.30;;
61085;SDS011;46967;48.876;2.136;2022-12-15T09:29:24;36.05;;;18.58;;
61085;SDS011;46967;48.876;2.136;2022-12-15T09:31:49;36.88;;;18.58;;
61085;SDS011;46967;48.876;2.136;2022-12-15T09:34:15;31.48;;;17.95;;
61085;SDS011;46967;48.876;2.136;2022-12-15T09:36:40;32.67;;;18.38;;
61085;SDS011;46967;48.876;2.136;2022-12-15T09:39:06;32.75;;;17.63;;
61085;SDS011;46967;48.876;2.136;2022-12-15T09:41:33;30.70;;;17.67;;
61085;SDS011;46967;48.876;2.136;2022-12-15T09:49:02;34.10;;;17.65;;
61085;SDS011;46967;48.876;2.136;2022-12-15T09:51:38;38.00;;;20.50;;
61085;SDS011;46967;48.876;2.136;2022-12-15T09:54:11;32.00;;;17.42;;
61085;SDS011;46967;48.876;2.136;2022-12-15T09:56:44;30.70;;;17.52;;
61085;SDS011;46967;48.876;2.136;2022-12-15T10:02:00;35.70;;;16.65;;
61085;SDS011;46967;48.876;2.136;2022-12-15T10:04:43;31.58;;;17.80;;
61085;SDS011;46967;48.876;2.136;2022-12-15T10:09:54;32.63;;;18.73;;
61085;SDS011;46967;48.876;2.136;2022-12-15T10:12:25;33.33;;;18.13;;
61085;SDS011;46967;48.876;2.136;2022-12-15T10:17:44;33.92;;;18.95;;
61085;SDS011;46967;48.876;2.136;2022-12-15T10:20:20;34.75;;;18.70;;
61085;SDS011;46967;48.876;2.136;2022-12-15T10:22:50;33.05;;;19.05;;
61085;SDS011;46967;48.876;2.136;2022-12-15T10:25:17;34.17;;;18.55;;
61085;SDS011;46967;48.876;2.136;2022-12-15T10:30:31;30.90;;;18.45;;
61085;SDS011;46967;48.876;2.136;2022-12-15T10:33:12;37.53;;;19.10;;
61085;SDS011;46967;48.876;2.136;2022-12-15T10:35:44;35.95;;;18.63;;
61085;SDS011;46967;48.876;2.136;2022-12-15T10:38:17;36.80;;;19.80;;
61085;SDS011;46967;48.876;2.136;2022-12-15T10:43:13;34.25;;;19.23;;
61085;SDS011;46967;48.876;2.136;2022-12-15T10:45:48;34.35;;;18.38;;
61085;SDS011;46967;48.876;2.136;2022-12-15T10:48:18;33.33;;;19.65;;
61085;SDS011;46967;48.876;2.136;2022-12-15T10:50:44;38.63;;;19.48;;
61085;SDS011;46967;48.876;2.136;2022-12-15T10:53:30;36.97;;;18.75;;
61085;SDS011;46967;48.876;2.136;2022-12-15T10:56:02;30.30;;;18.60;;
61085;SDS011;46967;48.876;2.136;2022-12-15T10:58:31;33.30;;;18.63;;
61085;SDS011;46967;48.876;2.136;2022-12-15T11:01:06;40.00;;;20.85;;
61085;SDS011;46967;48.876;2.136;2022-12-15T11:03:38;37.80;;;19.50;;
61085;SDS011;46967;48.876;2.136;2022-12-15T11:06:08;38.35;;;18.98;;
61085;SDS011;46967;48.876;2.136;2022-12-15T11:08:39;34.65;;;19.73;;
61085;SDS011;46967;48.876;2.136;2022-12-15T11:11:08;35.83;;;20.58;;
61085;SDS011;46967;48.876;2.136;2022-12-15T11:14:12;32.60;;;17.92;;
61085;SDS011;46967;48.876;2.136;2022-12-15T11:16:50;37.25;;;19.00;;
61085;SDS011;46967;48.876;2.136;2022-12-15T11:21:50;34.08;;;17.88;;
61085;SDS011;46967;48.876;2.136;2022-12-15T11:24:21;39.88;;;18.73;;
61085;SDS011;46967;48.876;2.136;2022-12-15T11:27:05;36.97;;;19.48;;
61085;SDS011;46967;48.876;2.136;2022-12-15T11:29:43;35.60;;;17.50;;
61085;SDS011;46967;48.876;2.136;2022-12-15T11:32:16;35.95;;;17.63;;
61085;SDS011;46967;48.876;2.136;2022-12-15T11:34:45;33.72;;;16.95;;
61085;SDS011;46967;48.876;2.136;2022-12-15T11:48:25;29.13;;;15.73;;
61085;SDS011;46967;48.876;2.136;2022-12-15T11:51:05;32.03;;;16.73;;
61085;SDS011;46967;48.876;2.136;2022-12-15T12:09:27;26.88;;;14.35;;
61085;SDS011;46967;48.876;2.136;2022-12-15T12:12:00;26.75;;;15.30;;
61085;SDS011;46967;48.876;2.136;2022-12-15T12:15:15;24.88;;;13.57;;
61085;SDS011;46967;48.876;2.136;2022-12-15T12:17:46;29.02;;;14.15;;
61085;SDS011;46967;48.876;2.136;2022-12-15T12:22:52;23.35;;;13.40;;
61085;SDS011;46967;48.876;2.136;2022-12-15T12:25:21;29.27;;;14.23;;
61085;SDS011;46967;48.876;2.136;2022-12-15T12:27:53;24.00;;;13.68;;
61085;SDS011;46967;48.876;2.136;2022-12-15T12:30:24;20.98;;;12.85;;
61085;SDS011;46967;48.876;2.136;2022-12-15T12:32:59;23.13;;;12.55;;
61085;SDS011;46967;48.876;2.136;2022-12-15T12:35:45;24.50;;;12.70;;
61085;SDS011;46967;48.876;2.136;2022-12-15T12:38:11;24.88;;;13.05;;
61085;SDS011;46967;48.876;2.136;2022-12-15T12:43:05;23.95;;;11.73;;
61085;SDS011;46967;48.876;2.136;2022-12-15T12:45:36;23.50;;;12.55;;
61085;SDS011;46967;48.876;2.136;2022-12-15T12:48:17;21.20;;;12.50;;
61085;SDS011;46967;48.876;2.136;2022-12-15T12:50:48;22.88;;;12.60;;
61085;SDS011;46967;48.876;2.136;2022-12-15T12:53:48;20.50;;;11.88;;
61085;SDS011;46967;48.876;2.136;2022-12-15T12:56:06;20.83;;;11.65;;
61085;SDS011;46967;48.876;2.136;2022-12-15T12:58:51;21.63;;;11.60;;
61085;SDS011;46967;48.876;2.136;2022-12-15T13:04:06;18.20;;;11.03;;
61085;SDS011;46967;48.876;2.136;2022-12-15T13:14:16;19.10;;;11.95;;
61085;SDS011;46967;48.876;2.136;2022-12-15T13:16:44;26.42;;;11.95;;
61085;SDS011;46967;48.876;2.136;2022-12-15T13:19:11;18.80;;;11.18;;
61085;SDS011;46967;48.876;2.136;2022-12-15T13:24:15;21.58;;;10.85;;
61085;SDS011;46967;48.876;2.136;2022-12-15T13:26:46;18.50;;;11.45;;
61085;SDS011;46967;48.876;2.136;2022-12-15T13:29:12;22.58;;;10.48;;
61085;SDS011;46967;48.876;2.136;2022-12-15T13:31:41;18.95;;;10.90;;
61085;SDS011;46967;48.876;2.136;2022-12-15T13:34:11;23.75;;;11.95;;
61085;SDS011;46967;48.876;2.136;2022-12-15T13:41:40;18.95;;;10.90;;
61085;SDS011;46967;48.876;2.136;2022-12-15T13:46:50;22.10;;;11.50;;
61085;SDS011;46967;48.876;2.136;2022-12-15T13:51:51;19.63;;;11.95;;
61085;SDS011;46967;48.876;2.136;2022-12-15T13:54:26;17.38;;;10.57;;
61085;SDS011;46967;48.876;2.136;2022-12-15T13:57:03;17.52;;;10.77;;
61085;SDS011;46967;48.876;2.136;2022-12-15T13:59:39;19.48;;;9.82;;
61085;SDS011;46967;48.876;2.136;2022-12-15T14:07:37;15.63;;;9.10;;
61085;SDS011;46967;48.876;2.136;2022-12-15T14:10:04;16.77;;;9.13;;
61085;SDS011;46967;48.876;2.136;2022-12-15T14:12:39;18.40;;;9.15;;
61085;SDS011;46967;48.876;2.136;2022-12-15T14:15:10;17.38;;;8.63;;
61085;SDS011;46967;48.876;2.136;2022-12-15T14:17:38;17.80;;;9.20;;
61085;SDS011;46967;48.876;2.136;2022-12-15T14:20:10;15.73;;;8.68;;
61085;SDS011;46967;48.876;2.136;2022-12-15T14:22:41;13.82;;;8.60;;
61085;SDS011;46967;48.876;2.136;2022-12-15T14:25:15;16.33;;;8.52;;
61085;SDS011;46967;48.876;2.136;2022-12-15T14:27:44;15.00;;;8.10;;
61085;SDS011;46967;48.876;2.136;2022-12-15T14:32:53;15.63;;;7.38;;
61085;SDS011;46967;48.876;2.136;2022-12-15T14:35:44;12.95;;;8.63;;
61085;SDS011;46967;48.876;2.136;2022-12-15T14:38:13;15.13;;;8.07;;
61085;SDS011;46967;48.876;2.136;2022-12-15T14:40:42;15.95;;;7.80;;
61085;SDS011;46967;48.876;2.136;2022-12-15T14:43:14;16.53;;;7.80;;
61085;SDS011;46967;48.876;2.136;2022-12-15T14:45:45;16.13;;;7.80;;
61085;SDS011;46967;48.876;2.136;2022-12-15T14:48:19;18.35;;;8.32;;
61085;SDS011;46967;48.876;2.136;2022-12-15T14:50:52;15.82;;;7.53;;
61085;SDS011;46967;48.876;2.136;2022-12-15T14:53:18;13.32;;;7.22;;
61085;SDS011;46967;48.876;2.136;2022-12-15T14:55:45;16.80;;;7.63;;
61085;SDS011;46967;48.876;2.136;2022-12-15T15:00:57;17.52;;;7.35;;
61085;SDS011;46967;48.876;2.136;2022-12-15T15:03:34;10.70;;;6.53;;
61085;SDS011;46967;48.876;2.136;2022-12-15T15:08:46;18.90;;;7.03;;
61085;SDS011;46967;48.876;2.136;2022-12-15T15:11:27;13.48;;;7.32;;
61085;SDS011;46967;48.876;2.136;2022-12-15T15:13:55;14.52;;;6.88;;
61085;SDS011;46967;48.876;2.136;2022-12-15T15:16:24;18.45;;;7.88;;
61085;SDS011;46967;48.876;2.136;2022-12-15T15:18:51;13.65;;;7.05;;
61085;SDS011;46967;48.876;2.136;2022-12-15T15:21:23;12.75;;;7.22;;
61085;SDS011;46967;48.876;2.136;2022-12-15T15:26:34;17.70;;;6.65;;
61085;SDS011;46967;48.876;2.136;2022-12-15T15:29:00;13.88;;;6.45;;
61085;SDS011;46967;48.876;2.136;2022-12-15T15:31:36;13.55;;;6.28;;
61085;SDS011;46967;48.876;2.136;2022-12-15T15:34:02;17.02;;;6.97;;
61085;SDS011;46967;48.876;2.136;2022-12-15T15:36:37;18.55;;;7.32;;
61085;SDS011;46967;48.876;2.136;2022-12-15T15:39:08;13.32;;;6.20;;
61085;SDS011;46967;48.876;2.136;2022-12-15T15:41:37;15.85;;;7.18;;
61085;SDS011;46967;48.876;2.136;2022-12-15T15:44:07;15.13;;;6.90;;
61085;SDS011;46967;48.876;2.136;2022-12-15T15:46:36;14.48;;;6.60;;
61085;SDS011;46967;48.876;2.136;2022-12-15T15:49:11;17.10;;;7.40;;
61085;SDS011;46967;48.876;2.136;2022-12-15T15:51:40;14.98;;;6.28;;
61085;SDS011;46967;48.876;2.136;2022-12-15T15:54:12;10.98;;;6.55;;
61085;SDS011;46967;48.876;2.136;2022-12-15T15:56:40;12.30;;;6.13;;
61085;SDS011;46967;48.876;2.136;2022-12-15T15:59:16;12.15;;;6.63;;
61085;SDS011;46967;48.876;2.136;2022-12-15T16:01:44;12.68;;;7.40;;
61085;SDS011;46967;48.876;2.136;2022-12-15T16:04:15;11.40;;;6.57;;
61085;SDS011;46967;48.876;2.136;2022-12-15T16:06:41;12.63;;;7.03;;
61085;SDS011;46967;48.876;2.136;2022-12-15T16:09:06;17.35;;;7.60;;
61085;SDS011;46967;48.876;2.136;2022-12-15T16:11:31;12.52;;;6.82;;
61085;SDS011;46967;48.876;2.136;2022-12-15T16:13:59;12.80;;;7.57;;
61085;SDS011;46967;48.876;2.136;2022-12-15T16:16:26;16.20;;;8.02;;
61085;SDS011;46967;48.876;2.136;2022-12-15T16:18:55;15.00;;;7.82;;
61085;SDS011;46967;48.876;2.136;2022-12-15T16:21:20;12.30;;;6.82;;
61085;SDS011;46967;48.876;2.136;2022-12-15T16:23:49;17.10;;;7.43;;
61085;SDS011;46967;48.876;2.136;2022-12-15T16:26:15;15.57;;;7.45;;
61085;SDS011;46967;48.876;2.136;2022-12-15T16:28:47;16.88;;;8.23;;
61085;SDS011;46967;48.876;2.136;2022-12-15T16:31:13;17.77;;;9.65;;
61085;SDS011;46967;48.876;2.136;2022-12-15T16:33:50;13.55;;;8.57;;
61085;SDS011;46967;48.876;2.136;2022-12-15T16:36:16;17.05;;;8.77;;
61085;SDS011;46967;48.876;2.136;2022-12-15T16:38:41;18.65;;;9.32;;
61085;SDS011;46967;48.876;2.136;2022-12-15T16:41:09;18.33;;;9.65;;
61085;SDS011;46967;48.876;2.136;2022-12-15T16:43:39;16.70;;;9.13;;